sensor_id;sensor_type;location;lat;lon;timestamp;pressure;altitude;pressure_sealevel;temperature;humidity
6194;BME280;3130;41.564;23.280;2023-02-15T00:00:07;100158.69;;;1.70;79.37
6194;BME280;3130;41.564;23.280;2023-02-15T00:02:36;100151.94;;;1.75;79.05
6194;BME280;3130;41.564;23.280;2023-02-15T00:05:05;100145.97;;;1.85;79.67
6194;BME280;3130;41.564;23.280;2023-02-15T00:07:33;100135.16;;;1.65;79.05
6194;BME280;3130;41.564;23.280;2023-02-15T00:10:01;100131.81;;;1.54;80.29
6194;BME280;3130;41.564;23.280;2023-02-15T00:12:28;100012.59;;;0.82;80.30
6194;BME280;3130;41.564;23.280;2023-02-15T00:14:55;99841.41;;;-0.12;80.28
6194;BME280;3130;41.564;23.280;2023-02-15T00:17:23;100021.75;;;1.08;80.43
6194;BME280;3130;41.564;23.280;2023-02-15T00:19:50;100099.84;;;1.45;79.91
6194;BME280;3130;41.564;23.280;2023-02-15T00:22:20;100157.00;;;1.73;80.05
6194;BME280;3130;41.564;23.280;2023-02-15T00:24:48;99931.16;;;0.41;80.33
6194;BME280;3130;41.564;23.280;2023-02-15T00:27:16;99777.72;;;-0.61;80.04
6194;BME280;3130;41.564;23.280;2023-02-15T00:29:43;100046.16;;;1.03;79.97
6194;BME280;3130;41.564;23.280;2023-02-15T00:32:11;99876.59;;;0.17;79.75
6194;BME280;3130;41.564;23.280;2023-02-15T00:34:38;99806.16;;;-0.20;79.34
6194;BME280;3130;41.564;23.280;2023-02-15T00:37:06;99869.91;;;0.09;78.99
6194;BME280;3130;41.564;23.280;2023-02-15T00:39:35;99992.38;;;0.88;79.41
6194;BME280;3130;41.564;23.280;2023-02-15T00:42:02;100011.69;;;0.92;79.51
6194;BME280;3130;41.564;23.280;2023-02-15T00:44:30;99838.88;;;-0.17;79.08
6194;BME280;3130;41.564;23.280;2023-02-15T00:46:57;100022.66;;;0.89;79.25
6194;BME280;3130;41.564;23.280;2023-02-15T00:49:25;99796.13;;;-0.42;79.88
6194;BME280;3130;41.564;23.280;2023-02-15T00:51:52;100030.16;;;1.10;78.91
6194;BME280;3130;41.564;23.280;2023-02-15T00:54:20;100047.75;;;1.22;78.60
6194;BME280;3130;41.564;23.280;2023-02-15T00:56:50;100089.00;;;1.25;79.81
6194;BME280;3130;41.564;23.280;2023-02-15T00:59:18;100183.91;;;1.85;79.67
6194;BME280;3130;41.564;23.280;2023-02-15T01:01:45;100176.34;;;1.77;79.76
6194;BME280;3130;41.564;23.280;2023-02-15T01:04:13;100196.59;;;1.79;79.08
6194;BME280;3130;41.564;23.280;2023-02-15T01:06:41;100029.47;;;0.68;79.66
6194;BME280;3130;41.564;23.280;2023-02-15T01:09:08;99816.31;;;-0.60;79.96
6194;BME280;3130;41.564;23.280;2023-02-15T01:11:36;100163.00;;;1.45;81.01
6194;BME280;3130;41.564;23.280;2023-02-15T01:14:05;100168.06;;;1.48;81.29
6194;BME280;3130;41.564;23.280;2023-02-15T01:16:32;99959.81;;;0.17;81.70
6194;BME280;3130;41.564;23.280;2023-02-15T01:19:00;100132.00;;;1.03;82.82
6194;BME280;3130;41.564;23.280;2023-02-15T01:21:29;100095.03;;;0.77;82.52
6194;BME280;3130;41.564;23.280;2023-02-15T01:24:00;100195.91;;;1.33;82.59
6194;BME280;3130;41.564;23.280;2023-02-15T01:26:27;100157.25;;;1.06;82.95
6194;BME280;3130;41.564;23.280;2023-02-15T01:28:56;99793.72;;;-1.17;82.89
6194;BME280;3130;41.564;23.280;2023-02-15T01:31:25;100119.50;;;0.61;83.47
6194;BME280;3130;41.564;23.280;2023-02-15T01:33:52;100126.19;;;0.65;84.42
6194;BME280;3130;41.564;23.280;2023-02-15T01:36:20;100180.84;;;0.92;84.74
6194;BME280;3130;41.564;23.280;2023-02-15T01:38:48;100033.75;;;-0.07;84.98
6194;BME280;3130;41.564;23.280;2023-02-15T01:41:16;99778.56;;;-1.63;84.71
6194;BME280;3130;41.564;23.280;2023-02-15T01:43:55;99956.50;;;-0.47;85.37
6194;BME280;3130;41.564;23.280;2023-02-15T01:46:28;100164.88;;;0.81;85.41
6194;BME280;3130;41.564;23.280;2023-02-15T01:49:03;99825.56;;;-1.11;85.39
6194;BME280;3130;41.564;23.280;2023-02-15T01:51:34;100187.56;;;0.98;86.21
6194;BME280;3130;41.564;23.280;2023-02-15T01:54:07;100077.47;;;0.26;85.06
6194;BME280;3130;41.564;23.280;2023-02-15T01:56:38;100062.34;;;0.24;85.38
6194;BME280;3130;41.564;23.280;2023-02-15T01:59:09;100203.56;;;1.02;85.57
6194;BME280;3130;41.564;23.280;2023-02-15T02:01:43;100118.63;;;0.61;85.36
6194;BME280;3130;41.564;23.280;2023-02-15T02:04:16;100153.13;;;0.72;86.05
6194;BME280;3130;41.564;23.280;2023-02-15T02:06:46;100161.50;;;0.73;86.02
6194;BME280;3130;41.564;23.280;2023-02-15T02:09:15;100199.34;;;0.99;86.50
6194;BME280;3130;41.564;23.280;2023-02-15T02:11:44;100177.50;;;0.72;86.71
6194;BME280;3130;41.564;23.280;2023-02-15T02:14:13;100053.09;;;-0.03;87.04
6194;BME280;3130;41.564;23.280;2023-02-15T02:16:51;100006.06;;;-0.18;87.01
6194;BME280;3130;41.564;23.280;2023-02-15T02:25:51;99937.19;;;-0.36;86.80
6194;BME280;3130;41.564;23.280;2023-02-15T02:28:44;100195.13;;;1.12;86.12
6194;BME280;3130;41.564;23.280;2023-02-15T02:31:36;100195.97;;;1.08;86.68
6194;BME280;3130;41.564;23.280;2023-02-15T02:34:12;100113.59;;;0.50;86.38
6194;BME280;3130;41.564;23.280;2023-02-15T02:36:49;100026.22;;;-0.10;87.34
6194;BME280;3130;41.564;23.280;2023-02-15T02:39:25;100202.72;;;0.93;87.62
6194;BME280;3130;41.564;23.280;2023-02-15T02:42:01;100209.47;;;0.95;87.48
6194;BME280;3130;41.564;23.280;2023-02-15T02:44:38;99989.25;;;-0.25;87.84
6194;BME280;3130;41.564;23.280;2023-02-15T02:47:13;99971.63;;;-0.25;86.95
6194;BME280;3130;41.564;23.280;2023-02-15T02:49:45;100146.38;;;0.88;87.41
6194;BME280;3130;41.564;23.280;2023-02-15T02:52:35;100198.47;;;1.17;87.52
6194;BME280;3130;41.564;23.280;2023-02-15T02:55:04;100011.94;;;0.00;87.57
6194;BME280;3130;41.564;23.280;2023-02-15T02:57:34;100052.22;;;0.41;86.91
6194;BME280;3130;41.564;23.280;2023-02-15T03:00:06;100200.13;;;1.34;87.47
6194;BME280;3130;41.564;23.280;2023-02-15T03:02:38;100200.09;;;1.45;87.00
6194;BME280;3130;41.564;23.280;2023-02-15T03:05:14;99946.38;;;0.02;86.69
6194;BME280;3130;41.564;23.280;2023-02-15T03:07:43;100094.19;;;0.84;86.21
6194;BME280;3130;41.564;23.280;2023-02-15T03:12:52;100082.44;;;0.80;87.12
6194;BME280;3130;41.564;23.280;2023-02-15T03:15:24;99845.69;;;-0.46;86.84
6194;BME280;3130;41.564;23.280;2023-02-15T03:21:56;99828.91;;;-0.48;86.68
6194;BME280;3130;41.564;23.280;2023-02-15T03:24:32;100035.34;;;0.74;86.22
6194;BME280;3130;41.564;23.280;2023-02-15T03:27:04;100225.16;;;1.93;86.21
6194;BME280;3130;41.564;23.280;2023-02-15T03:29:35;100000.84;;;0.70;85.29
6194;BME280;3130;41.564;23.280;2023-02-15T03:32:08;99839.75;;;-0.30;84.68
6194;BME280;3130;41.564;23.280;2023-02-15T03:34:37;100233.53;;;2.08;85.59
6194;BME280;3130;41.564;23.280;2023-02-15T03:47:40;99947.09;;;0.50;84.32
6194;BME280;3130;41.564;23.280;2023-02-15T03:50:11;100066.25;;;1.27;84.90
6194;BME280;3130;41.564;23.280;2023-02-15T03:52:55;100241.84;;;2.29;84.22
6194;BME280;3130;41.564;23.280;2023-02-15T03:55:24;100104.88;;;1.57;84.35
6194;BME280;3130;41.564;23.280;2023-02-15T03:57:51;100101.34;;;1.76;83.41
6194;BME280;3130;41.564;23.280;2023-02-15T04:00:47;100244.97;;;2.67;83.07
6194;BME280;3130;41.564;23.280;2023-02-15T04:03:38;100236.44;;;2.77;82.39
6194;BME280;3130;41.564;23.280;2023-02-15T04:06:06;100236.47;;;2.76;82.39
6194;BME280;3130;41.564;23.280;2023-02-15T04:08:33;100127.38;;;1.98;82.24
6194;BME280;3130;41.564;23.280;2023-02-15T04:11:30;100046.78;;;1.48;82.21
6194;BME280;3130;41.564;23.280;2023-02-15T04:13:59;100250.81;;;2.74;82.21
6194;BME280;3130;41.564;23.280;2023-02-15T04:16:47;100056.09;;;1.36;82.17
6194;BME280;3130;41.564;23.280;2023-02-15T04:19:17;100266.97;;;2.58;82.08
6194;BME280;3130;41.564;23.280;2023-02-15T04:22:04;100018.28;;;1.21;82.33
6194;BME280;3130;41.564;23.280;2023-02-15T04:24:52;100134.94;;;2.00;82.52
6194;BME280;3130;41.564;23.280;2023-02-15T04:27:39;100251.69;;;2.71;82.80
6194;BME280;3130;41.564;23.280;2023-02-15T04:30:07;100192.06;;;2.30;83.01
6194;BME280;3130;41.564;23.280;2023-02-15T04:32:35;100039.22;;;1.45;82.68
6194;BME280;3130;41.564;23.280;2023-02-15T04:38:35;100257.53;;;2.79;82.55
6194;BME280;3130;41.564;23.280;2023-02-15T04:41:02;100271.78;;;2.94;82.01
6194;BME280;3130;41.564;23.280;2023-02-15T04:43:29;100270.91;;;2.93;81.76
6194;BME280;3130;41.564;23.280;2023-02-15T04:45:56;100264.09;;;3.04;82.14
6194;BME280;3130;41.564;23.280;2023-02-15T04:48:24;100237.28;;;2.81;81.70
6194;BME280;3130;41.564;23.280;2023-02-15T04:50:51;100285.13;;;3.09;82.47
6194;BME280;3130;41.564;23.280;2023-02-15T04:53:18;100276.75;;;3.04;81.69
6194;BME280;3130;41.564;23.280;2023-02-15T04:55:47;100162.50;;;2.36;82.01
6194;BME280;3130;41.564;23.280;2023-02-15T04:58:14;100291.13;;;3.00;81.97
6194;BME280;3130;41.564;23.280;2023-02-15T05:00:41;100239.81;;;2.76;81.85
6194;BME280;3130;41.564;23.280;2023-02-15T05:03:08;100140.00;;;2.00;81.92
6194;BME280;3130;41.564;23.280;2023-02-15T05:05:35;100230.72;;;2.50;82.10
6194;BME280;3130;41.564;23.280;2023-02-15T05:08:02;100101.47;;;1.60;82.03
6194;BME280;3130;41.564;23.280;2023-02-15T05:10:29;100214.03;;;2.23;82.20
6194;BME280;3130;41.564;23.280;2023-02-15T05:12:58;100141.75;;;1.91;82.16
6194;BME280;3130;41.564;23.280;2023-02-15T05:15:25;100288.66;;;2.95;82.23
6194;BME280;3130;41.564;23.280;2023-02-15T05:17:52;100283.44;;;3.08;81.66
6194;BME280;3130;41.564;23.280;2023-02-15T05:20:19;100301.81;;;3.34;81.45
6194;BME280;3130;41.564;23.280;2023-02-15T05:22:47;100263.94;;;3.22;80.66
6194;BME280;3130;41.564;23.280;2023-02-15T05:27:44;100148.19;;;2.31;79.78
6194;BME280;3130;41.564;23.280;2023-02-15T05:30:31;100306.88;;;3.35;79.47
6194;BME280;3130;41.564;23.280;2023-02-15T05:33:01;100290.88;;;3.33;80.12
6194;BME280;3130;41.564;23.280;2023-02-15T05:35:28;100330.31;;;3.60;79.77
6194;BME280;3130;41.564;23.280;2023-02-15T05:37:55;100233.69;;;3.04;78.79
6194;BME280;3130;41.564;23.280;2023-02-15T05:40:22;100317.03;;;3.34;79.63
6194;BME280;3130;41.564;23.280;2023-02-15T05:42:49;100146.56;;;2.25;80.09
6194;BME280;3130;41.564;23.280;2023-02-15T05:45:19;100328.00;;;3.36;79.90
6194;BME280;3130;41.564;23.280;2023-02-15T05:47:47;100308.59;;;3.32;80.58
6194;BME280;3130;41.564;23.280;2023-02-15T05:50:15;100235.53;;;2.83;79.81
6194;BME280;3130;41.564;23.280;2023-02-15T05:52:42;100333.78;;;3.50;79.40
6194;BME280;3130;41.564;23.280;2023-02-15T05:55:09;100349.72;;;3.65;79.82
6194;BME280;3130;41.564;23.280;2023-02-15T05:57:37;100166.56;;;2.55;79.75
6194;BME280;3130;41.564;23.280;2023-02-15T06:00:05;100208.66;;;2.68;79.42
6194;BME280;3130;41.564;23.280;2023-02-15T06:02:34;100305.22;;;3.30;79.65
6194;BME280;3130;41.564;23.280;2023-02-15T06:05:04;100157.34;;;2.47;79.38
6194;BME280;3130;41.564;23.280;2023-02-15T06:07:31;100343.72;;;3.69;78.83
6194;BME280;3130;41.564;23.280;2023-02-15T06:10:01;100353.81;;;3.75;79.18
6194;BME280;3130;41.564;23.280;2023-02-15T06:12:29;100176.78;;;2.45;78.92
6194;BME280;3130;41.564;23.280;2023-02-15T06:14:56;100368.44;;;3.51;79.44
6194;BME280;3130;41.564;23.280;2023-02-15T06:17:24;100243.09;;;2.89;79.40
6194;BME280;3130;41.564;23.280;2023-02-15T06:19:53;100363.19;;;3.69;79.18
6194;BME280;3130;41.564;23.280;2023-02-15T06:22:21;100363.84;;;3.87;79.17
6194;BME280;3130;41.564;23.280;2023-02-15T06:24:48;100362.84;;;4.01;78.46
6194;BME280;3130;41.564;23.280;2023-02-15T06:27:16;100361.88;;;4.13;76.99
6194;BME280;3130;41.564;23.280;2023-02-15T06:29:43;100271.03;;;3.70;76.20
6194;BME280;3130;41.564;23.280;2023-02-15T06:32:10;100365.00;;;4.36;76.17
6194;BME280;3130;41.564;23.280;2023-02-15T06:34:37;100316.13;;;4.19;75.25
6194;BME280;3130;41.564;23.280;2023-02-15T06:37:04;100344.53;;;4.48;74.37
6194;BME280;3130;41.564;23.280;2023-02-15T06:39:35;100373.84;;;4.71;73.82
6194;BME280;3130;41.564;23.280;2023-02-15T06:42:02;100354.66;;;4.49;72.63
6194;BME280;3130;41.564;23.280;2023-02-15T06:44:29;100368.75;;;4.73;72.73
6194;BME280;3130;41.564;23.280;2023-02-15T06:46:56;100287.97;;;4.35;71.77
6194;BME280;3130;41.564;23.280;2023-02-15T06:49:23;100369.44;;;4.84;72.21
6194;BME280;3130;41.564;23.280;2023-02-15T06:51:50;100369.34;;;4.91;72.20
6194;BME280;3130;41.564;23.280;2023-02-15T06:54:17;100222.31;;;4.11;72.19
6194;BME280;3130;41.564;23.280;2023-02-15T06:56:46;100371.56;;;5.12;71.45
6194;BME280;3130;41.564;23.280;2023-02-15T06:59:13;100311.94;;;4.78;70.59
6194;BME280;3130;41.564;23.280;2023-02-15T07:01:40;100369.81;;;5.17;69.90
6194;BME280;3130;41.564;23.280;2023-02-15T07:04:07;100362.75;;;5.34;69.86
6194;BME280;3130;41.564;23.280;2023-02-15T07:06:34;100372.72;;;5.46;69.76
6194;BME280;3130;41.564;23.280;2023-02-15T07:09:02;100371.81;;;5.50;69.12
6194;BME280;3130;41.564;23.280;2023-02-15T07:11:30;100377.59;;;5.58;68.50
6194;BME280;3130;41.564;23.280;2023-02-15T07:14:16;100376.59;;;5.68;68.52
6194;BME280;3130;41.564;23.280;2023-02-15T07:16:43;100373.03;;;5.79;68.13
6194;BME280;3130;41.564;23.280;2023-02-15T07:19:10;100371.94;;;5.92;67.84
6194;BME280;3130;41.564;23.280;2023-02-15T07:21:37;100380.22;;;6.03;67.07
6194;BME280;3130;41.564;23.280;2023-02-15T07:24:05;100384.16;;;6.19;66.47
6194;BME280;3130;41.564;23.280;2023-02-15T07:26:33;100242.00;;;5.54;66.07
6194;BME280;3130;41.564;23.280;2023-02-15T07:29:02;100290.44;;;5.95;65.39
6194;BME280;3130;41.564;23.280;2023-02-15T07:31:31;100262.44;;;5.94;65.55
6194;BME280;3130;41.564;23.280;2023-02-15T07:33:58;100377.09;;;6.74;64.72
6194;BME280;3130;41.564;23.280;2023-02-15T07:36:26;100376.00;;;6.85;64.43
6194;BME280;3130;41.564;23.280;2023-02-15T07:38:53;100380.19;;;6.88;63.60
6194;BME280;3130;41.564;23.280;2023-02-15T07:41:20;100273.28;;;6.42;63.42
6194;BME280;3130;41.564;23.280;2023-02-15T07:43:49;100369.44;;;7.11;63.11
6194;BME280;3130;41.564;23.280;2023-02-15T07:46:17;100222.34;;;6.42;62.70
6194;BME280;3130;41.564;23.280;2023-02-15T07:48:47;100371.00;;;7.53;61.90
6194;BME280;3130;41.564;23.280;2023-02-15T07:51:17;100356.97;;;7.69;61.03
6194;BME280;3130;41.564;23.280;2023-02-15T07:53:44;100378.47;;;7.93;59.08
6194;BME280;3130;41.564;23.280;2023-02-15T08:13:02;100385.38;;;7.89;59.68
6194;BME280;3130;41.564;23.280;2023-02-15T08:15:29;100369.28;;;7.86;59.32
6194;BME280;3130;41.564;23.280;2023-02-15T08:17:57;100358.03;;;7.93;59.71
6194;BME280;3130;41.564;23.280;2023-02-15T08:20:24;100380.09;;;7.95;59.69
6194;BME280;3130;41.564;23.280;2023-02-15T08:22:52;100361.81;;;8.10;59.97
6194;BME280;3130;41.564;23.280;2023-02-15T08:25:19;100359.13;;;8.46;58.68
6194;BME280;3130;41.564;23.280;2023-02-15T08:27:46;100375.72;;;8.90;56.96
6194;BME280;3130;41.564;23.280;2023-02-15T08:30:15;100348.38;;;8.92;55.86
6194;BME280;3130;41.564;23.280;2023-02-15T08:32:42;100356.38;;;9.34;54.52
6194;BME280;3130;41.564;23.280;2023-02-15T08:35:10;100378.09;;;9.75;53.44
6194;BME280;3130;41.564;23.280;2023-02-15T08:37:37;100312.56;;;9.17;51.63
6194;BME280;3130;41.564;23.280;2023-02-15T08:40:05;100386.72;;;9.72;51.62
6194;BME280;3130;41.564;23.280;2023-02-15T08:42:32;100382.47;;;9.96;51.45
6194;BME280;3130;41.564;23.280;2023-02-15T08:45:00;100348.63;;;10.12;50.16
6194;BME280;3130;41.564;23.280;2023-02-15T08:47:29;100376.34;;;10.71;48.38
6194;BME280;3130;41.564;23.280;2023-02-15T08:49:56;100378.72;;;10.99;47.42
6194;BME280;3130;41.564;23.280;2023-02-15T08:52:23;100353.38;;;10.90;46.16
6194;BME280;3130;41.564;23.280;2023-02-15T08:54:50;100371.78;;;11.01;46.09
6194;BME280;3130;41.564;23.280;2023-02-15T08:57:18;100360.09;;;10.94;46.15
6194;BME280;3130;41.564;23.280;2023-02-15T08:59:46;100367.97;;;10.89;46.25
6194;BME280;3130;41.564;23.280;2023-02-15T09:02:14;100368.63;;;10.94;46.21
6194;BME280;3130;41.564;23.280;2023-02-15T09:04:42;100375.47;;;10.94;46.29
6194;BME280;3130;41.564;23.280;2023-02-15T09:07:09;100373.38;;;10.82;46.49
6194;BME280;3130;41.564;23.280;2023-02-15T09:09:36;100372.53;;;10.81;46.82
6194;BME280;3130;41.564;23.280;2023-02-15T09:12:04;100301.00;;;10.06;47.07
6194;BME280;3130;41.564;23.280;2023-02-15T09:14:31;100373.81;;;10.24;48.28
6194;BME280;3130;41.564;23.280;2023-02-15T09:16:58;100364.06;;;10.10;49.25
6194;BME280;3130;41.564;23.280;2023-02-15T09:19:26;100324.94;;;9.81;49.16
6194;BME280;3130;41.564;23.280;2023-02-15T09:21:55;100366.22;;;9.97;49.75
6194;BME280;3130;41.564;23.280;2023-02-15T09:24:23;100311.13;;;9.61;49.65
6194;BME280;3130;41.564;23.280;2023-02-15T09:26:50;100341.75;;;9.88;49.44
6194;BME280;3130;41.564;23.280;2023-02-15T09:29:18;100371.91;;;10.06;49.49
6194;BME280;3130;41.564;23.280;2023-02-15T09:31:47;100366.47;;;9.91;49.94
6194;BME280;3130;41.564;23.280;2023-02-15T09:34:17;100365.69;;;9.87;50.01
6194;BME280;3130;41.564;23.280;2023-02-15T09:36:45;100364.78;;;9.90;49.86
6194;BME280;3130;41.564;23.280;2023-02-15T09:39:16;100321.47;;;9.58;50.48
6194;BME280;3130;41.564;23.280;2023-02-15T09:42:13;100352.44;;;9.76;49.95
6194;BME280;3130;41.564;23.280;2023-02-15T09:44:59;100343.34;;;9.68;50.44
6194;BME280;3130;41.564;23.280;2023-02-15T09:48:07;100349.53;;;9.61;51.25
6194;BME280;3130;41.564;23.280;2023-02-15T09:50:46;100353.03;;;9.58;51.49
6194;BME280;3130;41.564;23.280;2023-02-15T09:53:29;100310.06;;;9.42;51.03
6194;BME280;3130;41.564;23.280;2023-02-15T09:56:10;100201.34;;;8.77;51.19
6194;BME280;3130;41.564;23.280;2023-02-15T09:58:47;100330.59;;;9.66;50.92
6194;BME280;3130;41.564;23.280;2023-02-15T10:01:25;100334.56;;;9.75;50.58
6194;BME280;3130;41.564;23.280;2023-02-15T10:04:18;100217.72;;;8.72;51.24
6194;BME280;3130;41.564;23.280;2023-02-15T10:06:56;100297.56;;;9.33;50.60
6194;BME280;3130;41.564;23.280;2023-02-15T10:09:42;100315.69;;;9.53;50.20
6194;BME280;3130;41.564;23.280;2023-02-15T10:12:32;100312.53;;;9.69;50.51
6194;BME280;3130;41.564;23.280;2023-02-15T10:15:23;100211.34;;;9.35;48.86
6194;BME280;3130;41.564;23.280;2023-02-15T10:18:05;100203.38;;;9.42;47.77
6194;BME280;3130;41.564;23.280;2023-02-15T10:20:46;100230.75;;;9.65;47.51
6194;BME280;3130;41.564;23.280;2023-02-15T10:23:28;100151.59;;;9.34;47.57
6194;BME280;3130;41.564;23.280;2023-02-15T10:26:07;100154.41;;;9.28;47.64
6194;BME280;3130;41.564;23.280;2023-02-15T10:28:48;100283.66;;;10.13;48.27
6194;BME280;3130;41.564;23.280;2023-02-15T10:31:35;100247.88;;;9.63;47.50
6194;BME280;3130;41.564;23.280;2023-02-15T10:34:19;100211.88;;;9.18;49.01
6194;BME280;3130;41.564;23.280;2023-02-15T10:36:58;100271.03;;;9.60;49.50
6194;BME280;3130;41.564;23.280;2023-02-15T10:39:37;100261.91;;;9.76;49.39
6194;BME280;3130;41.564;23.280;2023-02-15T10:42:14;100238.59;;;9.60;49.05
6194;BME280;3130;41.564;23.280;2023-02-15T10:44:58;100247.59;;;9.47;48.85
6194;BME280;3130;41.564;23.280;2023-02-15T10:47:41;100219.38;;;9.24;48.61
6194;BME280;3130;41.564;23.280;2023-02-15T10:50:25;100096.16;;;8.62;48.66
6194;BME280;3130;41.564;23.280;2023-02-15T10:53:11;100250.78;;;9.77;47.17
6194;BME280;3130;41.564;23.280;2023-02-15T10:55:48;100235.88;;;9.88;47.03
6194;BME280;3130;41.564;23.280;2023-02-15T10:58:30;100235.31;;;9.80;46.45
6194;BME280;3130;41.564;23.280;2023-02-15T11:01:11;100166.41;;;9.26;46.67
6194;BME280;3130;41.564;23.280;2023-02-15T11:03:52;100094.81;;;9.00;46.68
6194;BME280;3130;41.564;23.280;2023-02-15T11:06:28;100243.09;;;10.24;46.19
6194;BME280;3130;41.564;23.280;2023-02-15T11:08:59;100192.88;;;10.18;45.23
6194;BME280;3130;41.564;23.280;2023-02-15T11:11:31;100137.47;;;9.93;44.83
6194;BME280;3130;41.564;23.280;2023-02-15T11:14:02;100234.88;;;10.37;45.17
6194;BME280;3130;41.564;23.280;2023-02-15T11:16:34;100246.13;;;10.33;45.16
6194;BME280;3130;41.564;23.280;2023-02-15T11:19:08;100189.75;;;10.10;45.49
6194;BME280;3130;41.564;23.280;2023-02-15T11:21:39;100229.94;;;10.33;45.46
6194;BME280;3130;41.564;23.280;2023-02-15T11:24:10;100201.03;;;10.51;44.40
6194;BME280;3130;41.564;23.280;2023-02-15T11:26:43;100223.44;;;10.89;44.19
6194;BME280;3130;41.564;23.280;2023-02-15T11:29:12;100173.94;;;10.85;43.86
6194;BME280;3130;41.564;23.280;2023-02-15T11:31:53;100196.22;;;10.85;42.89
6194;BME280;3130;41.564;23.280;2023-02-15T11:34:26;100232.25;;;10.82;43.72
6194;BME280;3130;41.564;23.280;2023-02-15T11:36:59;100218.38;;;11.07;43.62
6194;BME280;3130;41.564;23.280;2023-02-15T11:39:29;100170.88;;;11.17;42.64
6194;BME280;3130;41.564;23.280;2023-02-15T11:42:03;100111.00;;;11.16;41.70
6194;BME280;3130;41.564;23.280;2023-02-15T11:44:32;100215.06;;;11.83;41.33
6194;BME280;3130;41.564;23.280;2023-02-15T11:47:08;100062.69;;;11.06;41.26
6194;BME280;3130;41.564;23.280;2023-02-15T11:49:37;100181.88;;;11.79;41.19
6194;BME280;3130;41.564;23.280;2023-02-15T11:52:07;100062.03;;;11.01;41.12
6194;BME280;3130;41.564;23.280;2023-02-15T11:54:40;100189.59;;;11.79;41.14
6194;BME280;3130;41.564;23.280;2023-02-15T11:57:13;100067.28;;;10.80;41.56
6194;BME280;3130;41.564;23.280;2023-02-15T11:59:45;100200.59;;;11.62;41.85
6194;BME280;3130;41.564;23.280;2023-02-15T12:02:19;100102.41;;;11.17;41.57
6194;BME280;3130;41.564;23.280;2023-02-15T12:04:51;100145.69;;;11.65;41.37
6194;BME280;3130;41.564;23.280;2023-02-15T12:07:23;100059.88;;;11.30;41.07
6194;BME280;3130;41.564;23.280;2023-02-15T12:09:55;100177.81;;;12.28;40.97
6194;BME280;3130;41.564;23.280;2023-02-15T12:12:27;100154.53;;;12.31;40.31
6194;BME280;3130;41.564;23.280;2023-02-15T12:14:55;100091.53;;;12.04;39.97
6194;BME280;3130;41.564;23.280;2023-02-15T12:17:26;100134.41;;;12.39;39.65
6194;BME280;3130;41.564;23.280;2023-02-15T12:19:56;100175.03;;;12.68;39.43
6194;BME280;3130;41.564;23.280;2023-02-15T12:22:26;100172.91;;;12.76;39.34
6194;BME280;3130;41.564;23.280;2023-02-15T12:24:55;100169.47;;;12.94;38.88
6194;BME280;3130;41.564;23.280;2023-02-15T12:27:25;100167.78;;;13.10;38.51
6194;BME280;3130;41.564;23.280;2023-02-15T12:29:57;100172.34;;;13.05;38.23
6194;BME280;3130;41.564;23.280;2023-02-15T12:32:28;100098.31;;;12.24;38.53
6194;BME280;3130;41.564;23.280;2023-02-15T12:35:01;100133.97;;;12.48;39.04
6194;BME280;3130;41.564;23.280;2023-02-15T12:37:30;100027.44;;;12.02;38.87
6194;BME280;3130;41.564;23.280;2023-02-15T12:40:04;100124.00;;;12.76;38.64
6194;BME280;3130;41.564;23.280;2023-02-15T12:42:45;100139.69;;;13.06;38.53
6194;BME280;3130;41.564;23.280;2023-02-15T12:45:22;100134.53;;;13.22;38.58
6194;BME280;3130;41.564;23.280;2023-02-15T12:48:12;100106.13;;;13.24;38.38
6194;BME280;3130;41.564;23.280;2023-02-15T12:50:42;100089.16;;;13.20;37.81
6194;BME280;3130;41.564;23.280;2023-02-15T12:53:15;100103.41;;;13.42;38.17
6194;BME280;3130;41.564;23.280;2023-02-15T12:55:53;100048.06;;;13.02;37.56
6194;BME280;3130;41.564;23.280;2023-02-15T12:58:23;100111.44;;;13.21;37.88
6194;BME280;3130;41.564;23.280;2023-02-15T13:01:12;100119.13;;;13.38;38.53
6194;BME280;3130;41.564;23.280;2023-02-15T13:03:55;100079.41;;;13.42;37.51
6194;BME280;3130;41.564;23.280;2023-02-15T13:06:24;100105.34;;;13.54;37.88
6194;BME280;3130;41.564;23.280;2023-02-15T13:08:53;100050.69;;;13.17;37.80
6194;BME280;3130;41.564;23.280;2023-02-15T13:11:24;100100.38;;;13.51;37.93
6194;BME280;3130;41.564;23.280;2023-02-15T13:13:55;100054.59;;;13.24;38.02
6194;BME280;3130;41.564;23.280;2023-02-15T13:16:30;99970.25;;;12.80;37.56
6194;BME280;3130;41.564;23.280;2023-02-15T13:19:05;99999.88;;;13.04;37.52
6194;BME280;3130;41.564;23.280;2023-02-15T13:21:37;100099.94;;;13.74;37.37
6194;BME280;3130;41.564;23.280;2023-02-15T13:24:10;100058.16;;;13.69;36.92
6194;BME280;3130;41.564;23.280;2023-02-15T13:26:43;100086.38;;;14.02;36.31
6194;BME280;3130;41.564;23.280;2023-02-15T13:29:18;99952.31;;;13.10;36.17
6194;BME280;3130;41.564;23.280;2023-02-15T13:31:49;100092.97;;;13.92;36.49
6194;BME280;3130;41.564;23.280;2023-02-15T13:34:22;100098.72;;;13.97;36.64
6194;BME280;3130;41.564;23.280;2023-02-15T13:36:57;99955.53;;;13.14;36.70
6194;BME280;3130;41.564;23.280;2023-02-15T13:39:33;100003.09;;;13.55;36.16
6194;BME280;3130;41.564;23.280;2023-02-15T13:42:14;100089.97;;;14.14;36.15
6194;BME280;3130;41.564;23.280;2023-02-15T13:45:01;100019.22;;;13.74;36.33
6194;BME280;3130;41.564;23.280;2023-02-15T13:47:37;100091.97;;;14.09;36.47
6194;BME280;3130;41.564;23.280;2023-02-15T13:50:20;100085.56;;;14.01;36.21
6194;BME280;3130;41.564;23.280;2023-02-15T13:53:18;100082.91;;;14.03;36.22
6194;BME280;3130;41.564;23.280;2023-02-15T13:55:52;100041.84;;;13.84;36.40
6194;BME280;3130;41.564;23.280;2023-02-15T13:58:37;100052.38;;;13.95;35.99
6194;BME280;3130;41.564;23.280;2023-02-15T14:01:12;100088.00;;;14.04;35.85
6194;BME280;3130;41.564;23.280;2023-02-15T14:04:08;100068.38;;;13.86;36.40
6194;BME280;3130;41.564;23.280;2023-02-15T14:07:06;100080.47;;;14.00;36.50
6194;BME280;3130;41.564;23.280;2023-02-15T14:09:45;100034.94;;;13.69;36.16
6194;BME280;3130;41.564;23.280;2023-02-15T14:12:30;100024.53;;;13.55;35.90
6194;BME280;3130;41.564;23.280;2023-02-15T14:15:08;100082.19;;;13.85;36.35
6194;BME280;3130;41.564;23.280;2023-02-15T14:17:46;100036.00;;;13.50;36.75
6194;BME280;3130;41.564;23.280;2023-02-15T14:20:22;100092.63;;;13.98;36.62